Main page
METAR-TAF:

METAR-TAF

Airports :

Šiauliai International Airport

Šiauliai, Lithuania

latitude: 55-53-38N, longitude: 023-23-42E, elevation: 135 m

Current weather observation

The report was made 34 minutes ago, at 17:50 UTC
Wind 8 kt from the South/Southwest
Temperature 4°C
Humidity 87%
Pressure 999 hPa
Visibility 10 km or more
no clouds below 1500 m and no cumulonimbus

METAR: EYSA 091750Z 20008KT CAVOK 04/02 Q0999 R14L/29//95 R14R/29//95 BLU NOSIG

Time: 20:24 (18:24 UTC)

Forecast

The report was made 1 hour and 23 minutes ago, at 17:01 UTC
Forecast valid from 09 at 18 UTC to 10 at 03 UTC
Wind 10 kt from the South/Southwest
Visibility: 9000 m
Scattered clouds at a height of 1500 ft

TAF: EYSA 091701Z 0918/1003 21010KT 9000 SCT015

Weather observations and forecasts of more than 4000 airports (METAR and TAF reports).

The available stations are represented by yellow and red dots on the map.

Hover mouse over dot to see the name of the station.

Then click to see weather observations and forecasts.

To change the map : click on the green buttons with a black cross to zoom in, on the green button with a dash to zoom out, or on the green arrows for adjacent maps.


METAR-TAF: